sensor_id;sensor_type;location;lat;lon;timestamp;P1;durP1;ratioP1;P2;durP2;ratioP2
7162;SDS011;3623;47.098;15.446;2023-03-21T00:02:10;2.83;;;2.63;;
7162;SDS011;3623;47.098;15.446;2023-03-21T00:04:37;2.65;;;2.17;;
7162;SDS011;3623;47.098;15.446;2023-03-21T00:07:04;5.57;;;3.03;;
7162;SDS011;3623;47.098;15.446;2023-03-21T00:09:31;4.05;;;2.45;;
7162;SDS011;3623;47.098;15.446;2023-03-21T00:11:58;3.10;;;2.90;;
7162;SDS011;3623;47.098;15.446;2023-03-21T00:14:34;2.40;;;2.30;;
7162;SDS011;3623;47.098;15.446;2023-03-21T00:17:02;2.40;;;2.20;;
7162;SDS011;3623;47.098;15.446;2023-03-21T00:19:31;3.22;;;2.65;;
7162;SDS011;3623;47.098;15.446;2023-03-21T00:22:00;2.80;;;2.38;;
7162;SDS011;3623;47.098;15.446;2023-03-21T00:24:27;2.88;;;2.67;;
7162;SDS011;3623;47.098;15.446;2023-03-21T00:26:54;3.70;;;3.50;;
7162;SDS011;3623;47.098;15.446;2023-03-21T00:29:21;2.58;;;2.47;;
7162;SDS011;3623;47.098;15.446;2023-03-21T00:31:48;3.08;;;2.88;;
7162;SDS011;3623;47.098;15.446;2023-03-21T00:34:15;3.10;;;2.90;;
7162;SDS011;3623;47.098;15.446;2023-03-21T00:36:43;3.22;;;2.90;;
7162;SDS011;3623;47.098;15.446;2023-03-21T00:39:10;3.85;;;2.70;;
7162;SDS011;3623;47.098;15.446;2023-03-21T00:41:38;3.50;;;3.30;;
7162;SDS011;3623;47.098;15.446;2023-03-21T00:44:05;3.35;;;2.70;;
7162;SDS011;3623;47.098;15.446;2023-03-21T00:46:32;3.15;;;2.92;;
7162;SDS011;3623;47.098;15.446;2023-03-21T00:49:00;2.90;;;2.70;;
7162;SDS011;3623;47.098;15.446;2023-03-21T00:51:27;3.72;;;2.97;;
7162;SDS011;3623;47.098;15.446;2023-03-21T00:53:56;3.53;;;2.50;;
7162;SDS011;3623;47.098;15.446;2023-03-21T00:56:24;5.75;;;3.25;;
7162;SDS011;3623;47.098;15.446;2023-03-21T00:58:51;3.25;;;2.92;;
7162;SDS011;3623;47.098;15.446;2023-03-21T01:01:18;3.30;;;2.97;;
7162;SDS011;3623;47.098;15.446;2023-03-21T01:03:45;3.60;;;3.30;;
7162;SDS011;3623;47.098;15.446;2023-03-21T01:06:15;3.30;;;3.00;;
7162;SDS011;3623;47.098;15.446;2023-03-21T01:08:45;5.63;;;2.60;;
7162;SDS011;3623;47.098;15.446;2023-03-21T01:11:16;2.60;;;2.47;;
7162;SDS011;3623;47.098;15.446;2023-03-21T01:13:44;3.40;;;3.10;;
7162;SDS011;3623;47.098;15.446;2023-03-21T01:16:12;8.07;;;3.08;;
7162;SDS011;3623;47.098;15.446;2023-03-21T01:18:40;2.92;;;2.72;;
7162;SDS011;3623;47.098;15.446;2023-03-21T01:21:08;2.78;;;2.58;;
7162;SDS011;3623;47.098;15.446;2023-03-21T01:23:37;4.45;;;2.97;;
7162;SDS011;3623;47.098;15.446;2023-03-21T01:26:06;3.72;;;2.90;;
7162;SDS011;3623;47.098;15.446;2023-03-21T01:28:36;5.10;;;2.63;;
7162;SDS011;3623;47.098;15.446;2023-03-21T01:31:04;5.47;;;3.38;;
7162;SDS011;3623;47.098;15.446;2023-03-21T01:33:32;5.00;;;2.72;;
7162;SDS011;3623;47.098;15.446;2023-03-21T01:36:00;3.22;;;3.00;;
7162;SDS011;3623;47.098;15.446;2023-03-21T01:38:28;3.67;;;3.13;;
7162;SDS011;3623;47.098;15.446;2023-03-21T01:40:55;2.72;;;2.53;;
7162;SDS011;3623;47.098;15.446;2023-03-21T01:43:27;3.90;;;2.83;;
7162;SDS011;3623;47.098;15.446;2023-03-21T01:48:54;3.13;;;2.83;;
7162;SDS011;3623;47.098;15.446;2023-03-21T01:51:24;4.10;;;2.58;;
7162;SDS011;3623;47.098;15.446;2023-03-21T01:53:52;2.90;;;2.72;;
7162;SDS011;3623;47.098;15.446;2023-03-21T01:56:22;2.20;;;2.10;;
7162;SDS011;3623;47.098;15.446;2023-03-21T01:58:52;2.47;;;2.28;;
7162;SDS011;3623;47.098;15.446;2023-03-21T02:01:24;2.75;;;2.55;;
7162;SDS011;3623;47.098;15.446;2023-03-21T02:03:52;3.00;;;2.80;;
7162;SDS011;3623;47.098;15.446;2023-03-21T02:06:23;2.58;;;2.47;;
7162;SDS011;3623;47.098;15.446;2023-03-21T02:08:59;3.13;;;2.38;;
7162;SDS011;3623;47.098;15.446;2023-03-21T02:11:29;2.83;;;2.63;;
7162;SDS011;3623;47.098;15.446;2023-03-21T02:13:57;3.85;;;2.85;;
7162;SDS011;3623;47.098;15.446;2023-03-21T02:16:28;2.95;;;2.75;;
7162;SDS011;3623;47.098;15.446;2023-03-21T02:19:06;3.17;;;2.13;;
7162;SDS011;3623;47.098;15.446;2023-03-21T02:21:58;2.70;;;2.50;;
7162;SDS011;3623;47.098;15.446;2023-03-21T02:27:46;2.85;;;2.65;;
7162;SDS011;3623;47.098;15.446;2023-03-21T02:30:37;3.33;;;3.13;;
7162;SDS011;3623;47.098;15.446;2023-03-21T02:36:25;3.42;;;3.13;;
7162;SDS011;3623;47.098;15.446;2023-03-21T02:39:00;3.35;;;2.78;;
7162;SDS011;3623;47.098;15.446;2023-03-21T02:41:35;3.17;;;2.88;;
7162;SDS011;3623;47.098;15.446;2023-03-21T02:44:13;3.20;;;3.00;;
7162;SDS011;3623;47.098;15.446;2023-03-21T02:46:44;4.30;;;3.13;;
7162;SDS011;3623;47.098;15.446;2023-03-21T02:49:19;2.50;;;2.30;;
7162;SDS011;3623;47.098;15.446;2023-03-21T02:51:50;4.72;;;2.80;;
7162;SDS011;3623;47.098;15.446;2023-03-21T02:54:19;2.45;;;2.25;;
7162;SDS011;3623;47.098;15.446;2023-03-21T02:56:49;3.60;;;3.00;;
7162;SDS011;3623;47.098;15.446;2023-03-21T02:59:20;2.88;;;2.67;;
7162;SDS011;3623;47.098;15.446;2023-03-21T03:01:50;3.92;;;2.90;;
7162;SDS011;3623;47.098;15.446;2023-03-21T03:04:21;3.38;;;2.67;;
7162;SDS011;3623;47.098;15.446;2023-03-21T03:07:02;2.38;;;2.20;;
7162;SDS011;3623;47.098;15.446;2023-03-21T03:09:42;3.42;;;3.13;;
7162;SDS011;3623;47.098;15.446;2023-03-21T03:12:24;3.42;;;3.22;;
7162;SDS011;3623;47.098;15.446;2023-03-21T03:15:00;3.10;;;2.90;;
7162;SDS011;3623;47.098;15.446;2023-03-21T03:17:38;4.15;;;3.72;;
7162;SDS011;3623;47.098;15.446;2023-03-21T03:20:20;2.80;;;2.60;;
7162;SDS011;3623;47.098;15.446;2023-03-21T03:22:53;4.03;;;3.40;;
7162;SDS011;3623;47.098;15.446;2023-03-21T03:25:28;3.58;;;3.08;;
7162;SDS011;3623;47.098;15.446;2023-03-21T03:28:01;3.10;;;2.80;;
7162;SDS011;3623;47.098;15.446;2023-03-21T03:30:31;3.08;;;2.88;;
7162;SDS011;3623;47.098;15.446;2023-03-21T03:33:01;3.10;;;2.85;;
7162;SDS011;3623;47.098;15.446;2023-03-21T03:35:30;2.58;;;2.28;;
7162;SDS011;3623;47.098;15.446;2023-03-21T03:37:59;3.53;;;2.55;;
7162;SDS011;3623;47.098;15.446;2023-03-21T03:40:33;3.58;;;3.20;;
7162;SDS011;3623;47.098;15.446;2023-03-21T03:43:06;5.45;;;3.08;;
7162;SDS011;3623;47.098;15.446;2023-03-21T03:45:39;3.25;;;3.05;;
7162;SDS011;3623;47.098;15.446;2023-03-21T03:48:12;3.00;;;2.72;;
7162;SDS011;3623;47.098;15.446;2023-03-21T03:50:44;2.70;;;2.60;;
7162;SDS011;3623;47.098;15.446;2023-03-21T03:53:17;3.75;;;3.47;;
7162;SDS011;3623;47.098;15.446;2023-03-21T03:55:48;3.78;;;3.22;;
7162;SDS011;3623;47.098;15.446;2023-03-21T03:58:17;3.90;;;3.03;;
7162;SDS011;3623;47.098;15.446;2023-03-21T04:00:45;3.42;;;2.92;;
7162;SDS011;3623;47.098;15.446;2023-03-21T04:03:13;6.30;;;3.13;;
7162;SDS011;3623;47.098;15.446;2023-03-21T04:05:42;3.20;;;3.00;;
7162;SDS011;3623;47.098;15.446;2023-03-21T04:08:10;2.92;;;2.72;;
7162;SDS011;3623;47.098;15.446;2023-03-21T04:10:38;4.32;;;2.97;;
7162;SDS011;3623;47.098;15.446;2023-03-21T04:13:07;5.45;;;3.40;;
7162;SDS011;3623;47.098;15.446;2023-03-21T04:15:34;4.30;;;3.90;;
7162;SDS011;3623;47.098;15.446;2023-03-21T04:18:02;5.07;;;3.10;;
7162;SDS011;3623;47.098;15.446;2023-03-21T04:20:29;3.63;;;2.97;;
7162;SDS011;3623;47.098;15.446;2023-03-21T04:22:56;4.72;;;3.35;;
7162;SDS011;3623;47.098;15.446;2023-03-21T04:25:23;3.15;;;2.90;;
7162;SDS011;3623;47.098;15.446;2023-03-21T04:27:52;3.13;;;2.92;;
7162;SDS011;3623;47.098;15.446;2023-03-21T04:30:21;3.58;;;3.38;;
7162;SDS011;3623;47.098;15.446;2023-03-21T04:32:50;4.00;;;3.70;;
7162;SDS011;3623;47.098;15.446;2023-03-21T04:35:21;6.75;;;3.33;;
7162;SDS011;3623;47.098;15.446;2023-03-21T04:37:49;2.95;;;2.75;;
7162;SDS011;3623;47.098;15.446;2023-03-21T04:40:16;4.63;;;4.22;;
7162;SDS011;3623;47.098;15.446;2023-03-21T04:42:44;4.00;;;3.60;;
7162;SDS011;3623;47.098;15.446;2023-03-21T04:45:11;4.68;;;3.90;;
7162;SDS011;3623;47.098;15.446;2023-03-21T04:47:40;6.03;;;3.65;;
7162;SDS011;3623;47.098;15.446;2023-03-21T04:50:08;3.40;;;3.10;;
7162;SDS011;3623;47.098;15.446;2023-03-21T04:52:37;3.42;;;3.13;;
7162;SDS011;3623;47.098;15.446;2023-03-21T04:55:04;5.93;;;3.03;;
7162;SDS011;3623;47.098;15.446;2023-03-21T04:57:34;3.42;;;3.13;;
7162;SDS011;3623;47.098;15.446;2023-03-21T05:00:04;3.08;;;2.75;;
7162;SDS011;3623;47.098;15.446;2023-03-21T05:02:35;4.60;;;3.53;;
7162;SDS011;3623;47.098;15.446;2023-03-21T05:05:04;8.70;;;2.92;;
7162;SDS011;3623;47.098;15.446;2023-03-21T05:07:35;3.22;;;3.03;;
7162;SDS011;3623;47.098;15.446;2023-03-21T05:10:03;6.97;;;3.13;;
7162;SDS011;3623;47.098;15.446;2023-03-21T05:12:31;2.88;;;2.67;;
7162;SDS011;3623;47.098;15.446;2023-03-21T05:14:58;3.28;;;3.08;;
7162;SDS011;3623;47.098;15.446;2023-03-21T05:17:25;3.55;;;3.25;;
7162;SDS011;3623;47.098;15.446;2023-03-21T05:19:53;3.33;;;3.13;;
7162;SDS011;3623;47.098;15.446;2023-03-21T05:22:23;5.13;;;3.50;;
7162;SDS011;3623;47.098;15.446;2023-03-21T05:24:51;3.75;;;3.00;;
7162;SDS011;3623;47.098;15.446;2023-03-21T05:27:20;3.75;;;3.45;;
7162;SDS011;3623;47.098;15.446;2023-03-21T05:30:00;3.10;;;2.90;;
7162;SDS011;3623;47.098;15.446;2023-03-21T05:32:28;3.65;;;3.35;;
7162;SDS011;3623;47.098;15.446;2023-03-21T05:34:55;7.38;;;2.85;;
7162;SDS011;3623;47.098;15.446;2023-03-21T05:37:28;4.60;;;3.00;;
7162;SDS011;3623;47.098;15.446;2023-03-21T05:39:55;4.07;;;3.78;;
7162;SDS011;3623;47.098;15.446;2023-03-21T05:42:22;4.53;;;3.50;;
7162;SDS011;3623;47.098;15.446;2023-03-21T05:44:50;3.67;;;3.35;;
7162;SDS011;3623;47.098;15.446;2023-03-21T05:47:18;3.80;;;3.58;;
7162;SDS011;3623;47.098;15.446;2023-03-21T05:49:45;4.75;;;3.40;;
7162;SDS011;3623;47.098;15.446;2023-03-21T05:52:12;3.28;;;2.97;;
7162;SDS011;3623;47.098;15.446;2023-03-21T05:54:41;3.80;;;3.50;;
7162;SDS011;3623;47.098;15.446;2023-03-21T05:57:08;4.72;;;3.35;;
7162;SDS011;3623;47.098;15.446;2023-03-21T05:59:35;2.85;;;2.65;;
7162;SDS011;3623;47.098;15.446;2023-03-21T06:02:02;8.10;;;3.40;;
7162;SDS011;3623;47.098;15.446;2023-03-21T06:04:30;2.75;;;2.63;;
7162;SDS011;3623;47.098;15.446;2023-03-21T06:06:57;3.47;;;3.17;;
7162;SDS011;3623;47.098;15.446;2023-03-21T06:09:24;3.92;;;3.65;;
7162;SDS011;3623;47.098;15.446;2023-03-21T06:11:54;4.10;;;2.90;;
7162;SDS011;3623;47.098;15.446;2023-03-21T06:14:22;3.60;;;3.13;;
7162;SDS011;3623;47.098;15.446;2023-03-21T06:16:50;4.75;;;3.42;;
7162;SDS011;3623;47.098;15.446;2023-03-21T06:19:18;5.40;;;2.63;;
7162;SDS011;3623;47.098;15.446;2023-03-21T06:21:46;5.28;;;3.40;;
7162;SDS011;3623;47.098;15.446;2023-03-21T06:24:13;2.88;;;2.67;;
7162;SDS011;3623;47.098;15.446;2023-03-21T06:26:42;3.97;;;2.83;;
7162;SDS011;3623;47.098;15.446;2023-03-21T06:29:11;3.00;;;2.50;;
7162;SDS011;3623;47.098;15.446;2023-03-21T06:31:38;3.13;;;2.65;;
7162;SDS011;3623;47.098;15.446;2023-03-21T06:34:05;5.80;;;2.80;;
7162;SDS011;3623;47.098;15.446;2023-03-21T06:36:34;3.38;;;2.70;;
7162;SDS011;3623;47.098;15.446;2023-03-21T06:39:02;5.35;;;3.20;;
7162;SDS011;3623;47.098;15.446;2023-03-21T06:41:30;3.15;;;2.95;;
7162;SDS011;3623;47.098;15.446;2023-03-21T06:43:57;3.20;;;3.00;;
7162;SDS011;3623;47.098;15.446;2023-03-21T06:46:26;3.80;;;2.90;;
7162;SDS011;3623;47.098;15.446;2023-03-21T06:48:53;2.97;;;2.78;;
7162;SDS011;3623;47.098;15.446;2023-03-21T06:51:20;3.10;;;2.90;;
7162;SDS011;3623;47.098;15.446;2023-03-21T06:53:47;3.25;;;3.05;;
7162;SDS011;3623;47.098;15.446;2023-03-21T06:56:14;4.78;;;3.45;;
7162;SDS011;3623;47.098;15.446;2023-03-21T06:58:42;6.43;;;3.42;;
7162;SDS011;3623;47.098;15.446;2023-03-21T07:01:09;4.40;;;3.92;;
7162;SDS011;3623;47.098;15.446;2023-03-21T07:03:37;4.72;;;3.35;;
7162;SDS011;3623;47.098;15.446;2023-03-21T07:06:05;3.83;;;3.40;;
7162;SDS011;3623;47.098;15.446;2023-03-21T07:08:36;5.15;;;3.40;;
7162;SDS011;3623;47.098;15.446;2023-03-21T07:11:03;3.30;;;3.08;;
7162;SDS011;3623;47.098;15.446;2023-03-21T07:13:30;4.47;;;3.70;;
7162;SDS011;3623;47.098;15.446;2023-03-21T07:15:58;6.65;;;3.55;;
7162;SDS011;3623;47.098;15.446;2023-03-21T07:18:26;3.50;;;2.90;;
7162;SDS011;3623;47.098;15.446;2023-03-21T07:20:56;3.53;;;2.88;;
7162;SDS011;3623;47.098;15.446;2023-03-21T07:23:24;4.70;;;3.50;;
7162;SDS011;3623;47.098;15.446;2023-03-21T07:25:52;3.80;;;3.30;;
7162;SDS011;3623;47.098;15.446;2023-03-21T07:28:19;4.83;;;3.20;;
7162;SDS011;3623;47.098;15.446;2023-03-21T07:30:50;3.17;;;2.87;;
7162;SDS011;3623;47.098;15.446;2023-03-21T07:33:19;2.77;;;2.53;;
7162;SDS011;3623;47.098;15.446;2023-03-21T07:35:47;4.28;;;3.00;;
7162;SDS011;3623;47.098;15.446;2023-03-21T07:38:16;3.20;;;2.90;;
7162;SDS011;3623;47.098;15.446;2023-03-21T07:40:43;4.05;;;3.75;;
7162;SDS011;3623;47.098;15.446;2023-03-21T07:43:11;4.00;;;3.25;;
7162;SDS011;3623;47.098;15.446;2023-03-21T07:45:38;4.47;;;3.38;;
7162;SDS011;3623;47.098;15.446;2023-03-21T07:48:06;3.20;;;3.00;;
7162;SDS011;3623;47.098;15.446;2023-03-21T07:50:34;4.07;;;3.70;;
7162;SDS011;3623;47.098;15.446;2023-03-21T07:53:01;4.38;;;3.28;;
7162;SDS011;3623;47.098;15.446;2023-03-21T07:55:29;3.10;;;2.90;;
7162;SDS011;3623;47.098;15.446;2023-03-21T07:57:59;2.97;;;2.72;;
7162;SDS011;3623;47.098;15.446;2023-03-21T08:00:26;4.57;;;2.60;;
7162;SDS011;3623;47.098;15.446;2023-03-21T08:02:54;3.83;;;2.63;;
7162;SDS011;3623;47.098;15.446;2023-03-21T08:05:23;3.60;;;3.00;;
7162;SDS011;3623;47.098;15.446;2023-03-21T08:07:52;5.40;;;3.58;;
7162;SDS011;3623;47.098;15.446;2023-03-21T08:10:20;4.43;;;2.47;;
7162;SDS011;3623;47.098;15.446;2023-03-21T08:12:48;4.88;;;2.63;;
7162;SDS011;3623;47.098;15.446;2023-03-21T08:15:15;2.75;;;2.55;;
7162;SDS011;3623;47.098;15.446;2023-03-21T08:17:42;2.50;;;2.30;;
7162;SDS011;3623;47.098;15.446;2023-03-21T08:20:11;2.50;;;2.40;;
7162;SDS011;3623;47.098;15.446;2023-03-21T08:22:41;6.38;;;2.28;;
7162;SDS011;3623;47.098;15.446;2023-03-21T08:25:09;5.50;;;2.20;;
7162;SDS011;3623;47.098;15.446;2023-03-21T08:27:38;2.22;;;2.13;;
7162;SDS011;3623;47.098;15.446;2023-03-21T08:30:08;3.03;;;2.83;;
7162;SDS011;3623;47.098;15.446;2023-03-21T08:32:37;2.47;;;2.28;;
7162;SDS011;3623;47.098;15.446;2023-03-21T08:35:05;2.10;;;1.95;;
7162;SDS011;3623;47.098;15.446;2023-03-21T08:37:34;4.57;;;2.72;;
7162;SDS011;3623;47.098;15.446;2023-03-21T08:40:01;3.80;;;2.63;;
7162;SDS011;3623;47.098;15.446;2023-03-21T08:42:31;12.88;;;2.65;;
7162;SDS011;3623;47.098;15.446;2023-03-21T08:44:58;7.75;;;2.80;;
7162;SDS011;3623;47.098;15.446;2023-03-21T08:47:26;5.38;;;3.00;;
7162;SDS011;3623;47.098;15.446;2023-03-21T08:49:53;3.92;;;3.10;;
7162;SDS011;3623;47.098;15.446;2023-03-21T08:52:20;5.40;;;4.03;;
7162;SDS011;3623;47.098;15.446;2023-03-21T08:54:47;5.60;;;4.45;;
7162;SDS011;3623;47.098;15.446;2023-03-21T08:57:17;15.80;;;4.53;;
7162;SDS011;3623;47.098;15.446;2023-03-21T08:59:44;8.27;;;4.50;;
7162;SDS011;3623;47.098;15.446;2023-03-21T09:02:12;6.80;;;3.80;;
7162;SDS011;3623;47.098;15.446;2023-03-21T09:04:41;5.30;;;3.80;;
7162;SDS011;3623;47.098;15.446;2023-03-21T09:07:11;4.10;;;3.10;;
7162;SDS011;3623;47.098;15.446;2023-03-21T09:09:39;3.87;;;3.50;;
7162;SDS011;3623;47.098;15.446;2023-03-21T09:12:06;4.30;;;3.63;;
7162;SDS011;3623;47.098;15.446;2023-03-21T09:14:33;4.77;;;4.20;;
7162;SDS011;3623;47.098;15.446;2023-03-21T09:17:02;10.60;;;3.60;;
7162;SDS011;3623;47.098;15.446;2023-03-21T09:19:29;5.43;;;3.20;;
7162;SDS011;3623;47.098;15.446;2023-03-21T09:21:57;7.40;;;2.10;;
7162;SDS011;3623;47.098;15.446;2023-03-21T09:24:24;3.43;;;2.23;;
7162;SDS011;3623;47.098;15.446;2023-03-21T09:26:52;2.53;;;1.57;;
7162;SDS011;3623;47.098;15.446;2023-03-21T09:29:19;1.77;;;0.83;;
7162;SDS011;3623;47.098;15.446;2023-03-21T09:31:47;3.43;;;1.10;;
7162;SDS011;3623;47.098;15.446;2023-03-21T09:34:14;1.53;;;0.90;;
7162;SDS011;3623;47.098;15.446;2023-03-21T09:36:42;0.70;;;0.70;;
7162;SDS011;3623;47.098;15.446;2023-03-21T09:39:14;1.07;;;1.07;;
7162;SDS011;3623;47.098;15.446;2023-03-21T09:44:38;1.67;;;0.90;;
7162;SDS011;3623;47.098;15.446;2023-03-21T09:47:16;0.70;;;0.70;;
7162;SDS011;3623;47.098;15.446;2023-03-21T09:49:46;1.13;;;1.13;;
7162;SDS011;3623;47.098;15.446;2023-03-21T09:52:18;3.10;;;2.47;;
7162;SDS011;3623;47.098;15.446;2023-03-21T09:54:50;5.40;;;2.40;;
7162;SDS011;3623;47.098;15.446;2023-03-21T09:57:23;1.80;;;1.70;;
7162;SDS011;3623;47.098;15.446;2023-03-21T09:59:58;4.07;;;2.20;;
7162;SDS011;3623;47.098;15.446;2023-03-21T10:02:36;2.50;;;1.87;;
7162;SDS011;3623;47.098;15.446;2023-03-21T10:05:16;2.63;;;2.37;;
7162;SDS011;3623;47.098;15.446;2023-03-21T10:07:45;2.60;;;1.30;;
7162;SDS011;3623;47.098;15.446;2023-03-21T10:10:21;1.50;;;1.40;;
7162;SDS011;3623;47.098;15.446;2023-03-21T10:12:51;1.63;;;1.53;;
7162;SDS011;3623;47.098;15.446;2023-03-21T10:15:21;2.30;;;2.10;;
7162;SDS011;3623;47.098;15.446;2023-03-21T10:17:51;1.63;;;1.50;;
7162;SDS011;3623;47.098;15.446;2023-03-21T10:20:21;2.50;;;1.73;;
7162;SDS011;3623;47.098;15.446;2023-03-21T10:22:51;2.03;;;1.53;;
7162;SDS011;3623;47.098;15.446;2023-03-21T10:25:29;1.63;;;1.30;;
7162;SDS011;3623;47.098;15.446;2023-03-21T10:27:58;2.27;;;1.20;;
7162;SDS011;3623;47.098;15.446;2023-03-21T10:30:28;1.37;;;1.37;;
7162;SDS011;3623;47.098;15.446;2023-03-21T10:33:05;1.90;;;1.43;;
7162;SDS011;3623;47.098;15.446;2023-03-21T10:35:39;5.77;;;1.57;;
7162;SDS011;3623;47.098;15.446;2023-03-21T10:38:12;1.80;;;1.70;;
7162;SDS011;3623;47.098;15.446;2023-03-21T10:40:43;2.27;;;1.43;;
7162;SDS011;3623;47.098;15.446;2023-03-21T10:43:15;1.93;;;1.47;;
7162;SDS011;3623;47.098;15.446;2023-03-21T10:48:55;2.53;;;1.63;;
7162;SDS011;3623;47.098;15.446;2023-03-21T10:51:25;1.43;;;1.20;;
7162;SDS011;3623;47.098;15.446;2023-03-21T10:53:56;2.23;;;1.77;;
7162;SDS011;3623;47.098;15.446;2023-03-21T10:56:34;2.60;;;1.43;;
7162;SDS011;3623;47.098;15.446;2023-03-21T10:59:02;2.80;;;1.70;;
7162;SDS011;3623;47.098;15.446;2023-03-21T11:01:34;2.40;;;1.77;;
7162;SDS011;3623;47.098;15.446;2023-03-21T11:04:08;3.27;;;1.63;;
7162;SDS011;3623;47.098;15.446;2023-03-21T11:06:39;2.47;;;1.97;;
7162;SDS011;3623;47.098;15.446;2023-03-21T11:09:11;2.20;;;1.23;;
7162;SDS011;3623;47.098;15.446;2023-03-21T11:11:48;3.03;;;1.40;;
7162;SDS011;3623;47.098;15.446;2023-03-21T11:14:30;1.80;;;1.17;;
7162;SDS011;3623;47.098;15.446;2023-03-21T11:17:00;1.70;;;1.20;;
7162;SDS011;3623;47.098;15.446;2023-03-21T11:19:28;1.67;;;1.57;;
7162;SDS011;3623;47.098;15.446;2023-03-21T11:21:57;1.30;;;1.20;;
7162;SDS011;3623;47.098;15.446;2023-03-21T11:24:30;1.30;;;1.20;;
7162;SDS011;3623;47.098;15.446;2023-03-21T11:26:59;1.30;;;1.30;;
7162;SDS011;3623;47.098;15.446;2023-03-21T11:29:32;2.40;;;1.30;;
7162;SDS011;3623;47.098;15.446;2023-03-21T11:32:02;1.70;;;1.50;;
7162;SDS011;3623;47.098;15.446;2023-03-21T11:34:39;1.13;;;1.10;;
7162;SDS011;3623;47.098;15.446;2023-03-21T11:37:17;0.93;;;0.93;;
7162;SDS011;3623;47.098;15.446;2023-03-21T11:39:46;1.37;;;1.17;;
7162;SDS011;3623;47.098;15.446;2023-03-21T11:45:01;1.00;;;0.80;;
7162;SDS011;3623;47.098;15.446;2023-03-21T11:47:37;1.30;;;1.07;;
7162;SDS011;3623;47.098;15.446;2023-03-21T11:50:12;4.67;;;0.97;;
7162;SDS011;3623;47.098;15.446;2023-03-21T11:52:54;0.93;;;0.93;;
7162;SDS011;3623;47.098;15.446;2023-03-21T11:55:35;2.87;;;0.80;;
7162;SDS011;3623;47.098;15.446;2023-03-21T12:01:07;1.10;;;1.00;;
7162;SDS011;3623;47.098;15.446;2023-03-21T12:03:45;1.20;;;1.10;;
7162;SDS011;3623;47.098;15.446;2023-03-21T12:06:18;2.00;;;0.87;;
7162;SDS011;3623;47.098;15.446;2023-03-21T12:08:53;1.17;;;1.03;;
7162;SDS011;3623;47.098;15.446;2023-03-21T12:11:34;0.90;;;0.90;;
7162;SDS011;3623;47.098;15.446;2023-03-21T12:14:11;1.53;;;1.40;;
7162;SDS011;3623;47.098;15.446;2023-03-21T12:16:49;1.17;;;1.07;;
7162;SDS011;3623;47.098;15.446;2023-03-21T12:19:38;1.50;;;1.10;;
7162;SDS011;3623;47.098;15.446;2023-03-21T12:22:16;2.13;;;1.10;;
7162;SDS011;3623;47.098;15.446;2023-03-21T12:24:55;10.50;;;1.40;;
7162;SDS011;3623;47.098;15.446;2023-03-21T12:27:25;3.33;;;1.07;;
7162;SDS011;3623;47.098;15.446;2023-03-21T12:30:15;0.70;;;0.70;;
7162;SDS011;3623;47.098;15.446;2023-03-21T12:32:55;2.50;;;1.00;;
7162;SDS011;3623;47.098;15.446;2023-03-21T12:35:42;2.60;;;1.10;;
7162;SDS011;3623;47.098;15.446;2023-03-21T12:38:20;1.53;;;1.00;;
7162;SDS011;3623;47.098;15.446;2023-03-21T12:40:58;1.13;;;1.03;;
7162;SDS011;3623;47.098;15.446;2023-03-21T12:43:48;1.07;;;1.07;;
7162;SDS011;3623;47.098;15.446;2023-03-21T12:46:23;2.00;;;1.10;;
7162;SDS011;3623;47.098;15.446;2023-03-21T12:48:55;1.47;;;1.37;;
7162;SDS011;3623;47.098;15.446;2023-03-21T12:51:27;1.60;;;1.43;;
7162;SDS011;3623;47.098;15.446;2023-03-21T12:54:05;1.67;;;1.57;;
7162;SDS011;3623;47.098;15.446;2023-03-21T12:56:42;1.10;;;1.10;;
7162;SDS011;3623;47.098;15.446;2023-03-21T12:59:17;4.23;;;1.40;;
7162;SDS011;3623;47.098;15.446;2023-03-21T13:01:53;1.13;;;1.00;;
7162;SDS011;3623;47.098;15.446;2023-03-21T13:04:30;1.60;;;1.10;;
7162;SDS011;3623;47.098;15.446;2023-03-21T13:07:04;1.17;;;0.90;;
7162;SDS011;3623;47.098;15.446;2023-03-21T13:09:36;2.23;;;1.00;;
7162;SDS011;3623;47.098;15.446;2023-03-21T13:12:12;0.93;;;0.87;;
7162;SDS011;3623;47.098;15.446;2023-03-21T13:14:54;3.17;;;1.30;;
7162;SDS011;3623;47.098;15.446;2023-03-21T13:17:31;0.90;;;0.90;;
7162;SDS011;3623;47.098;15.446;2023-03-21T13:20:07;1.00;;;1.00;;
7162;SDS011;3623;47.098;15.446;2023-03-21T13:22:45;1.00;;;1.00;;
7162;SDS011;3623;47.098;15.446;2023-03-21T13:25:16;1.60;;;1.00;;
7162;SDS011;3623;47.098;15.446;2023-03-21T13:27:49;1.67;;;1.07;;
7162;SDS011;3623;47.098;15.446;2023-03-21T13:30:19;3.10;;;1.40;;
7162;SDS011;3623;47.098;15.446;2023-03-21T13:32:49;1.37;;;0.93;;
7162;SDS011;3623;47.098;15.446;2023-03-21T13:35:18;2.40;;;1.17;;
7162;SDS011;3623;47.098;15.446;2023-03-21T13:37:52;1.47;;;1.00;;
7162;SDS011;3623;47.098;15.446;2023-03-21T13:40:23;1.20;;;1.20;;
7162;SDS011;3623;47.098;15.446;2023-03-21T13:42:52;1.40;;;1.30;;
7162;SDS011;3623;47.098;15.446;2023-03-21T13:45:24;1.10;;;1.10;;
7162;SDS011;3623;47.098;15.446;2023-03-21T13:47:57;1.40;;;1.30;;
7162;SDS011;3623;47.098;15.446;2023-03-21T13:50:33;1.03;;;1.03;;
7162;SDS011;3623;47.098;15.446;2023-03-21T13:53:18;2.10;;;0.93;;
7162;SDS011;3623;47.098;15.446;2023-03-21T13:55:57;0.90;;;0.90;;
7162;SDS011;3623;47.098;15.446;2023-03-21T13:58:31;1.20;;;1.20;;
7162;SDS011;3623;47.098;15.446;2023-03-21T14:01:09;1.20;;;1.10;;
7162;SDS011;3623;47.098;15.446;2023-03-21T14:03:44;2.13;;;1.10;;
7162;SDS011;3623;47.098;15.446;2023-03-21T14:06:11;1.00;;;1.00;;
7162;SDS011;3623;47.098;15.446;2023-03-21T14:08:40;2.20;;;1.13;;
7162;SDS011;3623;47.098;15.446;2023-03-21T14:11:12;1.73;;;1.63;;
7162;SDS011;3623;47.098;15.446;2023-03-21T14:13:43;1.90;;;1.03;;
7162;SDS011;3623;47.098;15.446;2023-03-21T14:16:12;1.27;;;1.27;;
7162;SDS011;3623;47.098;15.446;2023-03-21T14:18:42;2.00;;;1.07;;
7162;SDS011;3623;47.098;15.446;2023-03-21T14:21:13;3.60;;;1.30;;
7162;SDS011;3623;47.098;15.446;2023-03-21T14:23:43;1.10;;;1.00;;
7162;SDS011;3623;47.098;15.446;2023-03-21T14:26:10;3.70;;;1.43;;
7162;SDS011;3623;47.098;15.446;2023-03-21T14:28:40;1.43;;;1.33;;
7162;SDS011;3623;47.098;15.446;2023-03-21T14:31:12;1.63;;;1.53;;
7162;SDS011;3623;47.098;15.446;2023-03-21T14:33:41;1.20;;;1.20;;
7162;SDS011;3623;47.098;15.446;2023-03-21T14:36:16;1.20;;;1.20;;
7162;SDS011;3623;47.098;15.446;2023-03-21T14:38:52;2.40;;;1.57;;
7162;SDS011;3623;47.098;15.446;2023-03-21T14:41:22;1.20;;;1.10;;
7162;SDS011;3623;47.098;15.446;2023-03-21T14:44:00;1.53;;;1.03;;
7162;SDS011;3623;47.098;15.446;2023-03-21T14:46:39;6.93;;;1.57;;
7162;SDS011;3623;47.098;15.446;2023-03-21T14:49:16;5.90;;;1.10;;
7162;SDS011;3623;47.098;15.446;2023-03-21T14:51:46;2.37;;;1.33;;
7162;SDS011;3623;47.098;15.446;2023-03-21T14:54:15;1.80;;;1.70;;
7162;SDS011;3623;47.098;15.446;2023-03-21T14:56:44;1.17;;;1.17;;
7162;SDS011;3623;47.098;15.446;2023-03-21T14:59:15;1.80;;;1.70;;
7162;SDS011;3623;47.098;15.446;2023-03-21T15:01:45;1.10;;;1.10;;
7162;SDS011;3623;47.098;15.446;2023-03-21T15:04:16;6.37;;;1.57;;
7162;SDS011;3623;47.098;15.446;2023-03-21T15:06:53;1.50;;;1.40;;
7162;SDS011;3623;47.098;15.446;2023-03-21T15:09:23;1.30;;;1.20;;
7162;SDS011;3623;47.098;15.446;2023-03-21T15:11:53;1.60;;;1.50;;
7162;SDS011;3623;47.098;15.446;2023-03-21T15:14:25;1.80;;;1.50;;
7162;SDS011;3623;47.098;15.446;2023-03-21T15:16:56;1.90;;;1.80;;
7162;SDS011;3623;47.098;15.446;2023-03-21T15:19:31;2.00;;;1.90;;
7162;SDS011;3623;47.098;15.446;2023-03-21T15:22:05;3.50;;;1.00;;
7162;SDS011;3623;47.098;15.446;2023-03-21T15:24:36;2.03;;;1.40;;
7162;SDS011;3623;47.098;15.446;2023-03-21T15:27:07;2.30;;;1.23;;
7162;SDS011;3623;47.098;15.446;2023-03-21T15:29:40;1.07;;;1.03;;
7162;SDS011;3623;47.098;15.446;2023-03-21T15:32:11;6.83;;;1.10;;
7162;SDS011;3623;47.098;15.446;2023-03-21T15:34:42;0.90;;;0.90;;
7162;SDS011;3623;47.098;15.446;2023-03-21T15:37:14;1.00;;;1.00;;
7162;SDS011;3623;47.098;15.446;2023-03-21T15:39:43;0.90;;;0.90;;
7162;SDS011;3623;47.098;15.446;2023-03-21T15:42:23;1.43;;;1.33;;
7162;SDS011;3623;47.098;15.446;2023-03-21T15:44:56;1.10;;;1.10;;